Time;durP1;ratioP1;P1;durP2;ratioP2;P2;SDS_P1;SDS_P2;PMS_P1;PMS_P2;Temp;Humidity;BMP_temperature;BMP_pressure;BME280_temperature;BME280_humidity;BME280_pressure;Samples;Min_cycle;Max_cycle;Signal;HPM_P1;HPM_P2
2022/09/08 00:00:41;;;;;;;20.40;6.22;;;;;;;;;;6205757;23;20283;-88
2022/09/08 00:03:47;;;;;;;14.30;5.90;;;;;;;;;;6203556;23;20171;-90
2022/09/08 00:06:53;;;;;;;11.02;5.88;;;;;;;;;;6205049;23;20159;-88
2022/09/08 00:09:58;;;;;;;17.35;6.18;;;;;;;;;;6202898;23;20175;-88
2022/09/08 00:13:07;;;;;;;15.88;6.00;;;;;;;;;;6203475;23;20167;-88
2022/09/08 00:16:12;;;;;;;10.43;5.45;;;;;;;;;;6204094;23;20242;-88
2022/09/08 00:19:19;;;;;;;9.05;5.85;;;;;;;;;;6203179;23;20166;-88
2022/09/08 00:22:24;;;;;;;15.95;6.15;;;;;;;;;;6204115;23;20175;-87
2022/09/08 00:25:29;;;;;;;11.90;5.90;;;;;;;;;;6201078;23;20222;-88
2022/09/08 00:28:34;;;;;;;17.05;5.68;;;;;;;;;;6203826;23;20162;-88
2022/09/08 00:31:39;;;;;;;13.95;5.95;;;;;;;;;;6203914;23;20214;-88
2022/09/08 00:34:46;;;;;;;17.35;6.47;;;;;;;;;;6221826;23;20199;-88
2022/09/08 00:37:52;;;;;;;16.23;6.55;;;;;;;;;;6203658;23;20168;-88
2022/09/08 00:40:57;;;;;;;10.38;5.70;;;;;;;;;;6201945;23;20167;-88
2022/09/08 00:44:16;;;;;;;17.88;6.28;;;;;;;;;;6202895;23;20150;-87
2022/09/08 00:47:24;;;;;;;16.58;6.28;;;;;;;;;;6204120;23;20611;-87
2022/09/08 00:50:30;;;;;;;15.52;6.65;;;;;;;;;;6203725;23;20175;-89
2022/09/08 00:53:38;;;;;;;13.00;6.70;;;;;;;;;;6203356;23;20291;-88
2022/09/08 00:56:45;;;;;;;11.35;6.25;;;;;;;;;;6220075;23;20250;-89
2022/09/08 00:59:50;;;;;;;12.75;6.22;;;;;;;;;;6204197;23;20210;-89
2022/09/08 01:02:55;;;;;;;16.92;7.10;;;;;;;;;;6203551;23;20167;-88
2022/09/08 01:06:11;;;;;;;14.35;6.55;;;;;;;;;;6204162;23;20167;-87
2022/09/08 01:12:47;;;;;;;16.42;7.55;;;;;;;;;;6203639;23;20159;-88
2022/09/08 01:15:52;;;;;;;14.15;7.20;;;;;;;;;;6173540;23;20504;-89
2022/09/08 01:18:57;;;;;;;15.30;8.02;;;;;;;;;;6192034;23;20225;-88
2022/09/08 01:22:09;;;;;;;17.10;6.60;;;;;;;;;;6173439;23;20226;-88
2022/09/08 01:25:25;;;;;;;11.27;6.28;;;;;;;;;;6172655;23;20176;-88
2022/09/08 01:28:33;;;;;;;13.82;6.93;;;;;;;;;;6174120;23;20169;-88
2022/09/08 01:31:39;;;;;;;25.92;7.78;;;;;;;;;;6176394;23;20172;-88
2022/09/08 01:34:45;;;;;;;14.40;7.38;;;;;;;;;;6174359;23;20298;-89
2022/09/08 01:37:50;;;;;;;11.63;6.55;;;;;;;;;;6175355;23;20168;-88
2022/09/08 01:40:55;;;;;;;15.57;7.30;;;;;;;;;;6174978;23;20199;-90
2022/09/08 01:44:02;;;;;;;14.70;6.78;;;;;;;;;;6176414;23;20160;-88
2022/09/08 01:47:07;;;;;;;14.80;6.85;;;;;;;;;;6177387;23;20243;-87
2022/09/08 01:50:12;;;;;;;11.82;7.03;;;;;;;;;;6177297;23;20202;-89
2022/09/08 01:53:17;;;;;;;19.02;7.03;;;;;;;;;;6177955;23;20179;-89
2022/09/08 01:56:23;;;;;;;15.85;7.05;;;;;;;;;;6177584;23;20176;-89
2022/09/08 01:59:29;;;;;;;17.20;7.43;;;;;;;;;;6177489;23;20152;-89
2022/09/08 02:02:35;;;;;;;12.88;6.40;;;;;;;;;;6177136;23;20176;-89
2022/09/08 02:05:40;;;;;;;11.40;6.60;;;;;;;;;;6178081;23;20293;-90
2022/09/08 02:08:44;;;;;;;11.15;5.93;;;;;;;;;;6176998;23;20259;-87
2022/09/08 02:11:51;;;;;;;17.98;6.20;;;;;;;;;;6175657;23;20203;-89
2022/09/08 02:14:58;;;;;;;13.90;6.80;;;;;;;;;;6200536;23;20191;-88
2022/09/08 02:18:03;;;;;;;11.45;6.38;;;;;;;;;;6206545;23;20171;-88
2022/09/08 02:21:11;;;;;;;11.50;6.38;;;;;;;;;;6206483;23;20248;-87
2022/09/08 02:24:16;;;;;;;10.02;5.82;;;;;;;;;;6206349;23;20682;-87
2022/09/08 02:27:21;;;;;;;17.02;6.95;;;;;;;;;;6206146;23;20171;-89
2022/09/08 02:30:28;;;;;;;15.23;7.13;;;;;;;;;;6205340;23;20468;-88
2022/09/08 02:33:33;;;;;;;10.73;5.93;;;;;;;;;;6206196;23;20167;-88
2022/09/08 02:36:38;;;;;;;12.15;6.25;;;;;;;;;;6206009;23;20548;-87
2022/09/08 02:39:44;;;;;;;14.68;6.50;;;;;;;;;;6205966;23;20278;-89
2022/09/08 02:42:49;;;;;;;11.55;5.97;;;;;;;;;;6204879;23;20183;-87
2022/09/08 02:45:56;;;;;;;15.60;5.93;;;;;;;;;;6222171;23;20200;-87
2022/09/08 02:49:01;;;;;;;13.48;6.43;;;;;;;;;;6204875;23;20161;-87
2022/09/08 02:52:06;;;;;;;10.23;6.68;;;;;;;;;;6205834;23;20186;-88
2022/09/08 02:55:11;;;;;;;12.35;5.85;;;;;;;;;;6206086;23;20198;-87
2022/09/08 02:58:30;;;;;;;11.75;6.45;;;;;;;;;;6208352;23;20283;-88
2022/09/08 03:01:37;;;;;;;12.95;6.30;;;;;;;;;;6206120;23;20216;-87
2022/09/08 03:04:43;;;;;;;12.32;6.32;;;;;;;;;;6205765;23;20170;-89
2022/09/08 03:07:48;;;;;;;11.07;6.20;;;;;;;;;;6206400;23;20487;-88
2022/09/08 03:10:53;;;;;;;15.27;6.07;;;;;;;;;;6206570;23;20167;-88
2022/09/08 03:13:57;;;;;;;12.13;7.03;;;;;;;;;;6192909;23;20315;-88
2022/09/08 03:17:04;;;;;;;10.25;6.70;;;;;;;;;;6191860;23;20174;-87
2022/09/08 03:20:10;;;;;;;10.50;5.90;;;;;;;;;;6192654;23;20156;-87
2022/09/08 03:23:17;;;;;;;11.32;5.93;;;;;;;;;;6192587;23;20163;-88
2022/09/08 03:26:24;;;;;;;11.68;6.20;;;;;;;;;;6194209;23;20175;-87
2022/09/08 03:29:29;;;;;;;12.90;7.70;;;;;;;;;;6193374;23;20172;-89
2022/09/08 03:32:35;;;;;;;11.13;6.45;;;;;;;;;;6192688;23;20183;-88
2022/09/08 03:35:40;;;;;;;11.10;6.32;;;;;;;;;;6192514;23;20191;-88
2022/09/08 03:38:46;;;;;;;13.68;6.85;;;;;;;;;;6193514;23;20215;-89
2022/09/08 03:41:51;;;;;;;14.60;6.53;;;;;;;;;;6193681;23;20276;-88
2022/09/08 03:44:56;;;;;;;10.65;6.03;;;;;;;;;;6193501;23;20171;-88
2022/09/08 03:48:26;;;;;;;14.52;5.95;;;;;;;;;;6193931;23;20168;-89
2022/09/08 03:51:33;;;;;;;11.27;6.70;;;;;;;;;;6194880;23;20168;-88
2022/09/08 03:54:50;;;;;;;14.93;6.72;;;;;;;;;;6194314;23;20555;-89
2022/09/08 03:57:56;;;;;;;16.75;6.30;;;;;;;;;;6193451;23;20172;-88
2022/09/08 04:01:03;;;;;;;12.55;6.32;;;;;;;;;;6192055;23;20488;-88
2022/09/08 04:04:08;;;;;;;15.38;6.85;;;;;;;;;;6191713;23;20168;-89
2022/09/08 04:07:14;;;;;;;13.85;6.60;;;;;;;;;;6191860;23;20192;-89
2022/09/08 04:10:20;;;;;;;12.82;7.45;;;;;;;;;;6192362;23;20179;-88
2022/09/08 04:13:26;;;;;;;14.13;7.90;;;;;;;;;;6197946;23;20237;-89
2022/09/08 04:16:31;;;;;;;16.65;7.85;;;;;;;;;;6204687;23;20171;-89
2022/09/08 04:19:36;;;;;;;18.70;8.25;;;;;;;;;;6202761;23;20170;-88
2022/09/08 04:22:42;;;;;;;17.65;8.30;;;;;;;;;;6203961;23;20183;-87
2022/09/08 04:25:55;;;;;;;16.15;7.55;;;;;;;;;;6222025;23;20175;-89
2022/09/08 04:29:00;;;;;;;17.13;8.32;;;;;;;;;;6206878;23;20167;-88
2022/09/08 04:32:07;;;;;;;14.90;7.25;;;;;;;;;;6206520;23;20298;-88
2022/09/08 04:35:12;;;;;;;16.38;7.53;;;;;;;;;;6204448;23;20270;-89
2022/09/08 04:38:19;;;;;;;13.32;7.90;;;;;;;;;;6206558;23;20171;-89
2022/09/08 04:41:25;;;;;;;17.80;8.05;;;;;;;;;;6204020;23;20291;-89
2022/09/08 04:44:30;;;;;;;16.75;7.82;;;;;;;;;;6207412;23;20171;-89
2022/09/08 04:48:02;;;;;;;19.67;7.68;;;;;;;;;;6206997;23;20314;-87
2022/09/08 04:51:11;;;;;;;15.50;7.68;;;;;;;;;;6205064;23;20171;-88
2022/09/08 04:54:18;;;;;;;16.85;7.88;;;;;;;;;;6204676;23;20171;-89
2022/09/08 04:57:22;;;;;;;19.98;7.57;;;;;;;;;;6222518;23;20301;-89
2022/09/08 05:00:27;;;;;;;17.98;7.40;;;;;;;;;;6206317;23;20156;-90
2022/09/08 05:03:33;;;;;;;16.15;8.38;;;;;;;;;;6206142;23;20167;-88
2022/09/08 05:06:38;;;;;;;15.98;7.78;;;;;;;;;;6209830;23;20235;-87
2022/09/08 05:09:44;;;;;;;14.32;7.90;;;;;;;;;;6207057;23;20171;-88
2022/09/08 05:12:49;;;;;;;13.55;7.78;;;;;;;;;;6208208;23;20614;-87
2022/09/08 05:15:54;;;;;;;14.07;7.85;;;;;;;;;;6180019;23;20519;-88
2022/09/08 05:19:00;;;;;;;14.20;7.55;;;;;;;;;;6180402;23;20287;-88
2022/09/08 05:22:05;;;;;;;18.42;7.97;;;;;;;;;;6177957;23;20164;-88
2022/09/08 05:25:12;;;;;;;15.05;7.10;;;;;;;;;;6175857;23;20215;-89
2022/09/08 05:28:17;;;;;;;12.07;6.90;;;;;;;;;;6177009;23;20168;-88
2022/09/08 05:31:23;;;;;;;13.98;7.93;;;;;;;;;;6176787;23;20166;-87
2022/09/08 05:34:28;;;;;;;15.95;8.30;;;;;;;;;;6176862;23;20168;-88
2022/09/08 05:37:33;;;;;;;16.52;7.97;;;;;;;;;;6174000;23;20240;-89
2022/09/08 05:40:39;;;;;;;12.10;6.95;;;;;;;;;;6194568;23;20148;-88
2022/09/08 05:43:44;;;;;;;13.65;8.02;;;;;;;;;;6175752;23;20242;-88
2022/09/08 05:46:49;;;;;;;16.90;10.10;;;;;;;;;;6174561;23;20306;-89
2022/09/08 05:49:54;;;;;;;17.85;8.35;;;;;;;;;;6194277;23;20684;-89
2022/09/08 05:53:00;;;;;;;12.57;7.03;;;;;;;;;;6175128;23;20654;-89
2022/09/08 05:56:07;;;;;;;11.35;6.75;;;;;;;;;;6174663;23;20191;-88
2022/09/08 05:59:13;;;;;;;16.50;7.20;;;;;;;;;;6174804;23;20564;-89
2022/09/08 06:02:18;;;;;;;17.23;7.57;;;;;;;;;;6174526;23;20167;-89
2022/09/08 06:05:24;;;;;;;17.15;7.47;;;;;;;;;;6174458;23;20215;-89
2022/09/08 06:08:29;;;;;;;25.75;10.40;;;;;;;;;;6175972;23;20329;-88
2022/09/08 06:11:36;;;;;;;19.85;7.60;;;;;;;;;;6176030;23;20217;-87
2022/09/08 06:14:41;;;;;;;11.32;6.80;;;;;;;;;;6194763;23;20190;-88
2022/09/08 06:17:46;;;;;;;16.77;6.90;;;;;;;;;;6202957;23;20186;-88
2022/09/08 06:20:51;;;;;;;14.80;7.30;;;;;;;;;;6202135;23;20299;-88
2022/09/08 06:23:57;;;;;;;14.43;7.05;;;;;;;;;;6204211;23;20186;-88
2022/09/08 06:27:07;;;;;;;16.17;7.82;;;;;;;;;;6203241;23;20497;-88
2022/09/08 06:30:13;;;;;;;13.88;7.22;;;;;;;;;;6203161;23;20187;-89
2022/09/08 06:33:21;;;;;;;15.30;7.45;;;;;;;;;;6202377;23;20191;-88
2022/09/08 06:36:31;;;;;;;15.23;8.18;;;;;;;;;;6202367;23;20199;-89
2022/09/08 06:39:40;;;;;;;12.65;7.43;;;;;;;;;;6203217;23;20602;-88
2022/09/08 06:42:50;;;;;;;14.13;7.53;;;;;;;;;;6202709;23;20171;-88
2022/09/08 06:45:57;;;;;;;14.63;8.05;;;;;;;;;;6202566;23;20636;-87
2022/09/08 06:49:03;;;;;;;16.20;7.47;;;;;;;;;;6201805;23;20218;-87
2022/09/08 06:52:13;;;;;;;15.50;8.13;;;;;;;;;;6201437;23;20166;-88
2022/09/08 06:55:23;;;;;;;18.90;8.15;;;;;;;;;;6201778;23;20191;-89
2022/09/08 06:58:31;;;;;;;13.18;8.23;;;;;;;;;;6201129;23;20250;-89
2022/09/08 07:01:42;;;;;;;14.30;7.18;;;;;;;;;;6201435;23;20179;-88
2022/09/08 07:04:50;;;;;;;17.15;7.75;;;;;;;;;;6202751;23;20647;-87
2022/09/08 07:07:58;;;;;;;15.75;7.00;;;;;;;;;;6203509;23;20217;-89
2022/09/08 07:11:07;;;;;;;12.05;6.80;;;;;;;;;;6221490;23;20218;-88
2022/09/08 07:14:20;;;;;;;22.73;7.70;;;;;;;;;;6189437;23;20183;-89
2022/09/08 07:17:29;;;;;;;11.05;6.35;;;;;;;;;;6191226;23;20172;-88
2022/09/08 07:20:34;;;;;;;8.85;5.68;;;;;;;;;;6192266;23;20168;-89
2022/09/08 07:23:40;;;;;;;10.70;5.60;;;;;;;;;;6195697;23;20171;-89
2022/09/08 07:26:49;;;;;;;9.30;4.40;;;;;;;;;;6189496;23;20219;-87
2022/09/08 07:29:58;;;;;;;8.18;5.07;;;;;;;;;;6193191;23;20176;-88
2022/09/08 07:33:06;;;;;;;5.97;3.20;;;;;;;;;;6189295;23;20171;-88
2022/09/08 07:36:15;;;;;;;6.03;2.78;;;;;;;;;;6189785;23;20211;-88
2022/09/08 07:39:23;;;;;;;8.75;2.22;;;;;;;;;;6190076;23;20179;-87
2022/09/08 07:42:28;;;;;;;7.03;2.25;;;;;;;;;;6189062;23;20635;-87
2022/09/08 07:45:37;;;;;;;4.20;1.80;;;;;;;;;;6191715;23;20264;-88
2022/09/08 07:48:48;;;;;;;6.07;2.17;;;;;;;;;;6193408;23;20214;-87
2022/09/08 07:52:00;;;;;;;3.55;1.83;;;;;;;;;;6193281;23;20172;-87
2022/09/08 07:55:11;;;;;;;5.18;1.90;;;;;;;;;;6192543;23;20722;-89
2022/09/08 07:58:18;;;;;;;12.80;4.40;;;;;;;;;;6193248;23;20163;-87
2022/09/08 08:01:31;;;;;;;4.55;2.20;;;;;;;;;;6192266;23;20171;-87
2022/09/08 08:04:46;;;;;;;8.43;2.25;;;;;;;;;;6190811;23;20331;-87
2022/09/08 08:07:57;;;;;;;7.53;2.15;;;;;;;;;;6192289;23;20172;-87
2022/09/08 08:11:07;;;;;;;5.63;1.98;;;;;;;;;;6191306;23;20588;-87
2022/09/08 08:14:15;;;;;;;8.07;2.25;;;;;;;;;;6194498;23;20196;-88
2022/09/08 08:17:34;;;;;;;5.57;1.60;;;;;;;;;;6173783;23;20195;-87
2022/09/08 08:20:50;;;;;;;11.93;2.13;;;;;;;;;;6174567;23;20175;-89
2022/09/08 08:24:12;;;;;;;4.13;1.60;;;;;;;;;;6171246;23;20208;-88
2022/09/08 08:27:23;;;;;;;5.40;1.52;;;;;;;;;;6192981;23;20555;-88
2022/09/08 08:30:29;;;;;;;6.40;1.80;;;;;;;;;;6173342;23;20236;-87
2022/09/08 08:33:37;;;;;;;3.78;1.90;;;;;;;;;;6172974;23;20655;-87
2022/09/08 08:36:44;;;;;;;6.93;1.52;;;;;;;;;;6174686;23;20519;-88
2022/09/08 08:39:52;;;;;;;5.28;2.03;;;;;;;;;;6173680;23;20171;-87
2022/09/08 08:43:04;;;;;;;4.97;1.80;;;;;;;;;;6176453;23;20660;-87
2022/09/08 08:46:18;;;;;;;2.28;1.40;;;;;;;;;;6175428;23;20214;-88
2022/09/08 08:49:33;;;;;;;3.03;1.30;;;;;;;;;;6177065;23;20255;-88
2022/09/08 08:52:46;;;;;;;3.60;1.08;;;;;;;;;;6181085;23;20188;-88
2022/09/08 08:55:55;;;;;;;5.68;1.60;;;;;;;;;;6175045;23;20241;-89
2022/09/08 08:59:07;;;;;;;7.45;1.70;;;;;;;;;;6175809;23;20246;-88
2022/09/08 09:02:17;;;;;;;2.90;1.38;;;;;;;;;;6174747;23;20284;-88
2022/09/08 09:05:31;;;;;;;12.05;1.48;;;;;;;;;;6174119;23;20172;-88
2022/09/08 09:08:54;;;;;;;5.45;2.00;;;;;;;;;;6174006;23;20232;-87
2022/09/08 09:12:05;;;;;;;5.22;1.80;;;;;;;;;;6174538;23;20623;-86
2022/09/08 09:15:27;;;;;;;5.07;1.40;;;;;;;;;;6201588;23;20190;-88
2022/09/08 09:19:00;;;;;;;3.38;1.45;;;;;;;;;;6202636;23;20172;-89
2022/09/08 09:22:16;;;;;;;3.03;1.50;;;;;;;;;;6204666;23;20231;-88
2022/09/08 09:25:22;;;;;;;5.68;1.70;;;;;;;;;;6206656;23;20168;-87
2022/09/08 09:28:49;;;;;;;5.43;1.90;;;;;;;;;;6203736;23;20171;-87
2022/09/08 09:32:21;;;;;;;6.95;1.80;;;;;;;;;;6204608;23;20263;-88
2022/09/08 09:35:39;;;;;;;4.20;1.83;;;;;;;;;;6209645;23;20175;-88
2022/09/08 09:38:59;;;;;;;3.30;1.60;;;;;;;;;;6211654;23;20207;-88
2022/09/08 09:42:21;;;;;;;3.40;1.70;;;;;;;;;;6207152;23;20175;-87
2022/09/08 09:45:41;;;;;;;4.85;1.50;;;;;;;;;;6207864;23;20207;-87
2022/09/08 09:49:01;;;;;;;3.75;1.25;;;;;;;;;;6207360;23;20291;-88
2022/09/08 09:52:12;;;;;;;4.35;1.30;;;;;;;;;;6205925;23;20166;-87
2022/09/08 09:55:24;;;;;;;7.03;1.70;;;;;;;;;;6208272;23;20183;-87
2022/09/08 09:59:01;;;;;;;7.15;1.90;;;;;;;;;;6205278;23;20167;-88
2022/09/08 10:02:30;;;;;;;3.20;1.52;;;;;;;;;;6204626;23;20175;-88
2022/09/08 10:05:50;;;;;;;2.72;1.20;;;;;;;;;;6204362;23;20171;-86
2022/09/08 10:09:13;;;;;;;8.60;1.38;;;;;;;;;;6174056;23;20194;-87
2022/09/08 10:12:37;;;;;;;2.70;1.42;;;;;;;;;;6211475;23;20375;-88
2022/09/08 10:15:56;;;;;;;4.25;1.27;;;;;;;;;;6178947;23;20171;-88
2022/09/08 10:19:24;;;;;;;2.13;1.10;;;;;;;;;;6175293;23;20245;-87
2022/09/08 10:22:42;;;;;;;4.25;1.20;;;;;;;;;;6190599;23;20184;-88
2022/09/08 10:25:58;;;;;;;2.38;1.00;;;;;;;;;;6172267;23;20172;-88
2022/09/08 10:29:08;;;;;;;3.65;1.15;;;;;;;;;;6171582;23;20910;-88
2022/09/08 10:32:34;;;;;;;7.15;1.30;;;;;;;;;;6172810;23;20223;-89
2022/09/08 10:35:40;;;;;;;3.42;1.40;;;;;;;;;;6173685;23;20654;-89
2022/09/08 10:38:52;;;;;;;3.58;1.35;;;;;;;;;;6175430;23;20168;-88
2022/09/08 10:42:16;;;;;;;3.85;1.08;;;;;;;;;;6191691;23;20212;-89
2022/09/08 10:45:32;;;;;;;7.15;2.17;;;;;;;;;;6173889;23;20615;-88
2022/09/08 10:48:55;;;;;;;3.85;1.42;;;;;;;;;;6173855;23;20665;-88
2022/09/08 10:52:15;;;;;;;4.70;1.60;;;;;;;;;;6173475;23;20690;-87
2022/09/08 10:55:36;;;;;;;2.65;1.10;;;;;;;;;;6191132;23;20179;-87
2022/09/08 10:59:00;;;;;;;2.10;1.17;;;;;;;;;;6172036;23;20199;-88
2022/09/08 11:02:24;;;;;;;1.77;1.00;;;;;;;;;;6175734;23;20176;-87
2022/09/08 11:05:41;;;;;;;8.05;3.30;;;;;;;;;;6172530;23;20179;-87
2022/09/08 11:08:56;;;;;;;2.05;1.20;;;;;;;;;;6173955;23;20225;-87
2022/09/08 11:12:18;;;;;;;6.20;1.63;;;;;;;;;;6177597;23;20195;-87
2022/09/08 11:15:31;;;;;;;6.70;1.20;;;;;;;;;;6205103;23;20614;-87
2022/09/08 11:18:38;;;;;;;2.35;1.45;;;;;;;;;;6203465;23;20171;-87
2022/09/08 11:21:47;;;;;;;2.05;0.90;;;;;;;;;;6205812;23;20167;-87
2022/09/08 11:25:00;;;;;;;3.90;1.58;;;;;;;;;;6206461;23;20291;-87
2022/09/08 11:28:12;;;;;;;5.55;1.77;;;;;;;;;;6208037;23;20163;-87
2022/09/08 11:31:25;;;;;;;2.00;1.40;;;;;;;;;;6202872;23;20247;-88
2022/09/08 11:34:40;;;;;;;7.53;1.90;;;;;;;;;;6206392;23;20194;-87
2022/09/08 11:41:29;;;;;;;2.33;1.40;;;;;;;;;;6212080;23;20193;-89
2022/09/08 11:44:56;;;;;;;7.22;1.50;;;;;;;;;;6203594;23;20242;-87
2022/09/08 11:48:10;;;;;;;2.42;1.10;;;;;;;;;;6204252;23;20174;-89
2022/09/08 11:51:22;;;;;;;1.98;1.20;;;;;;;;;;6204460;23;20168;-88
2022/09/08 11:54:34;;;;;;;1.98;1.10;;;;;;;;;;6204704;23;20166;-88
2022/09/08 11:57:49;;;;;;;3.33;1.15;;;;;;;;;;6206789;23;20202;-88
2022/09/08 12:01:01;;;;;;;5.15;1.40;;;;;;;;;;6208286;23;20195;-90
2022/09/08 12:04:26;;;;;;;5.55;1.55;;;;;;;;;;6205286;23;20184;-88
2022/09/08 12:07:44;;;;;;;2.67;1.20;;;;;;;;;;6204868;23;20190;-88
2022/09/08 12:10:58;;;;;;;7.88;1.48;;;;;;;;;;6202921;23;20179;-89
2022/09/08 12:14:06;;;;;;;1.73;1.08;;;;;;;;;;6190607;23;20214;-89
2022/09/08 12:17:16;;;;;;;4.88;1.00;;;;;;;;;;6204561;23;20223;-88
2022/09/08 12:20:30;;;;;;;2.38;1.20;;;;;;;;;;6199552;23;20251;-88
2022/09/08 12:23:42;;;;;;;2.42;1.08;;;;;;;;;;6190765;23;20172;-88
2022/09/08 12:26:55;;;;;;;4.75;1.17;;;;;;;;;;6192111;23;20223;-89
2022/09/08 12:30:05;;;;;;;4.55;1.10;;;;;;;;;;6193545;23;20251;-88
2022/09/08 12:33:32;;;;;;;1.38;0.80;;;;;;;;;;6195958;23;20171;-87
2022/09/08 12:36:42;;;;;;;1.70;0.80;;;;;;;;;;6191991;23;20196;-87
2022/09/08 12:40:05;;;;;;;1.95;0.90;;;;;;;;;;6195405;23;20706;-86
2022/09/08 12:43:18;;;;;;;2.78;1.00;;;;;;;;;;6195185;23;20267;-89
2022/09/08 12:46:49;;;;;;;3.08;1.05;;;;;;;;;;6193961;23;20175;-86
2022/09/08 12:50:17;;;;;;;2.22;0.85;;;;;;;;;;6193440;23;20156;-87
2022/09/08 12:53:37;;;;;;;2.88;0.98;;;;;;;;;;6194260;23;20167;-88
2022/09/08 12:56:54;;;;;;;2.17;1.13;;;;;;;;;;6191840;23;20291;-88
2022/09/08 13:00:07;;;;;;;2.97;0.90;;;;;;;;;;6195527;23;20170;-88
2022/09/08 13:03:29;;;;;;;1.25;1.08;;;;;;;;;;6193002;23;20494;-89
2022/09/08 13:06:50;;;;;;;2.28;1.58;;;;;;;;;;6193344;23;20284;-88
2022/09/08 13:10:00;;;;;;;2.80;1.33;;;;;;;;;;6193691;23;20167;-88
2022/09/08 13:13:24;;;;;;;2.00;1.10;;;;;;;;;;6194243;23;20176;-88
2022/09/08 13:16:32;;;;;;;3.20;1.35;;;;;;;;;;6204862;23;20504;-88
2022/09/08 13:19:41;;;;;;;2.97;0.90;;;;;;;;;;6205242;23;20171;-88
2022/09/08 13:22:51;;;;;;;2.38;1.33;;;;;;;;;;6208736;23;20176;-89
2022/09/08 13:26:01;;;;;;;2.42;1.27;;;;;;;;;;6204289;23;20172;-89
2022/09/08 13:29:36;;;;;;;3.55;1.20;;;;;;;;;;6208761;23;20208;-88
2022/09/08 13:32:55;;;;;;;3.55;1.13;;;;;;;;;;6088674;23;20254;-90
2022/09/08 13:36:13;;;;;;;1.75;1.08;;;;;;;;;;6225162;23;20222;-88
2022/09/08 13:39:26;;;;;;;6.05;1.40;;;;;;;;;;6210018;23;20171;-88
2022/09/08 13:42:40;;;;;;;6.00;1.25;;;;;;;;;;6205278;23;20701;-88
2022/09/08 13:45:50;;;;;;;2.08;1.10;;;;;;;;;;6206673;23;20175;-88
2022/09/08 13:49:12;;;;;;;2.53;0.90;;;;;;;;;;6206261;23;20183;-88
2022/09/08 13:52:42;;;;;;;2.08;1.10;;;;;;;;;;6204001;23;20181;-88
2022/09/08 13:55:54;;;;;;;5.13;1.05;;;;;;;;;;6222112;23;20237;-90
2022/09/08 13:59:02;;;;;;;5.40;1.30;;;;;;;;;;6205617;23;20167;-89
2022/09/08 14:02:18;;;;;;;2.95;1.30;;;;;;;;;;6205120;23;20202;-89
2022/09/08 14:05:28;;;;;;;4.43;1.55;;;;;;;;;;6205034;23;20178;-89
2022/09/08 14:08:38;;;;;;;1.85;1.20;;;;;;;;;;6204794;23;20171;-87
2022/09/08 14:11:47;;;;;;;10.25;1.35;;;;;;;;;;6204387;23;20665;-89
2022/09/08 14:15:00;;;;;;;3.03;1.20;;;;;;;;;;6193391;23;20184;-89
2022/09/08 14:18:20;;;;;;;1.77;1.35;;;;;;;;;;6189519;23;20192;-87
2022/09/08 14:21:30;;;;;;;2.75;1.40;;;;;;;;;;6193552;23;20176;-88
2022/09/08 14:24:43;;;;;;;4.57;1.65;;;;;;;;;;6194740;23;20156;-88
2022/09/08 14:28:00;;;;;;;5.43;1.60;;;;;;;;;;6192810;23;20168;-89
2022/09/08 14:31:10;;;;;;;2.45;1.33;;;;;;;;;;6192511;23;20172;-88
2022/09/08 14:34:22;;;;;;;4.65;1.80;;;;;;;;;;6192537;23;20223;-90
2022/09/08 14:37:30;;;;;;;3.58;1.75;;;;;;;;;;6192526;23;20727;-88
2022/09/08 14:40:38;;;;;;;3.13;1.67;;;;;;;;;;6192364;23;20172;-88
2022/09/08 14:44:05;;;;;;;2.05;1.40;;;;;;;;;;6192942;23;20606;-88
2022/09/08 14:47:11;;;;;;;2.78;1.48;;;;;;;;;;6193178;23;20168;-87
2022/09/08 14:50:23;;;;;;;4.47;2.60;;;;;;;;;;6193022;23;20576;-88
2022/09/08 14:53:41;;;;;;;2.42;1.60;;;;;;;;;;6191158;23;20176;-88
2022/09/08 14:56:49;;;;;;;5.20;2.45;;;;;;;;;;6191656;23;20184;-89
2022/09/08 15:00:15;;;;;;;2.20;1.35;;;;;;;;;;6192676;23;20168;-90
2022/09/08 15:03:21;;;;;;;5.68;1.60;;;;;;;;;;6195892;23;20302;-89
2022/09/08 15:06:37;;;;;;;2.70;1.08;;;;;;;;;;6194554;23;20160;-89
2022/09/08 15:09:47;;;;;;;2.05;0.90;;;;;;;;;;6191570;23;20296;-88
2022/09/08 15:13:01;;;;;;;1.58;1.10;;;;;;;;;;6194330;23;20172;-89
2022/09/08 15:16:26;;;;;;;3.17;1.25;;;;;;;;;;6204052;23;20168;-89
2022/09/08 15:19:32;;;;;;;5.47;1.60;;;;;;;;;;6205972;23;20232;-89
2022/09/08 15:22:43;;;;;;;2.78;1.45;;;;;;;;;;6206783;23;20175;-89
2022/09/08 15:25:58;;;;;;;2.55;1.20;;;;;;;;;;6206927;23;20179;-88
2022/09/08 15:29:10;;;;;;;2.55;1.20;;;;;;;;;;6202877;23;20171;-88
2022/09/08 15:32:23;;;;;;;2.85;1.30;;;;;;;;;;6202649;23;20615;-87
2022/09/08 15:35:37;;;;;;;1.55;1.02;;;;;;;;;;6202594;23;20178;-89
2022/09/08 15:38:50;;;;;;;6.88;3.50;;;;;;;;;;6202141;23;20195;-86
2022/09/08 15:42:12;;;;;;;1.80;1.27;;;;;;;;;;6201382;23;20257;-88
2022/09/08 15:45:25;;;;;;;3.15;1.52;;;;;;;;;;6203278;23;20170;-89
2022/09/08 15:48:51;;;;;;;4.45;1.50;;;;;;;;;;6220259;23;20175;-88
2022/09/08 15:52:07;;;;;;;3.55;1.02;;;;;;;;;;6202889;23;20174;-88
2022/09/08 15:55:22;;;;;;;5.72;1.25;;;;;;;;;;6203172;23;20183;-88
2022/09/08 15:58:32;;;;;;;4.70;1.42;;;;;;;;;;6202567;23;20210;-90
2022/09/08 16:01:44;;;;;;;2.42;1.42;;;;;;;;;;6205772;23;20218;-88
2022/09/08 16:05:03;;;;;;;5.10;1.88;;;;;;;;;;6208051;23;20175;-86
2022/09/08 16:08:16;;;;;;;4.15;1.50;;;;;;;;;;6207024;23;20163;-88
2022/09/08 16:11:30;;;;;;;2.65;1.45;;;;;;;;;;6201778;23;20178;-89
2022/09/08 16:14:39;;;;;;;3.88;1.85;;;;;;;;;;6189919;23;20242;-88
2022/09/08 16:18:04;;;;;;;3.33;1.85;;;;;;;;;;6191793;23;20195;-87
2022/09/08 16:21:13;;;;;;;4.78;2.10;;;;;;;;;;6190164;23;20183;-88
2022/09/08 16:24:31;;;;;;;3.03;1.65;;;;;;;;;;6192037;23;20175;-88
2022/09/08 16:27:57;;;;;;;3.45;1.65;;;;;;;;;;6191078;23;20171;-89
2022/09/08 16:31:12;;;;;;;3.97;1.92;;;;;;;;;;6192053;23;20173;-87
2022/09/08 16:34:28;;;;;;;4.07;2.20;;;;;;;;;;6193738;23;20171;-88
2022/09/08 16:37:35;;;;;;;5.75;3.67;;;;;;;;;;6189755;23;20187;-89
2022/09/08 16:40:51;;;;;;;3.67;2.08;;;;;;;;;;6192679;23;20396;-90
2022/09/08 16:43:58;;;;;;;2.90;1.88;;;;;;;;;;6197291;23;20216;-90
2022/09/08 16:51:03;;;;;;;3.90;1.83;;;;;;;;;;6195908;23;20159;-88
2022/09/08 16:54:19;;;;;;;4.57;2.00;;;;;;;;;;6191215;23;20168;-88
2022/09/08 16:57:26;;;;;;;3.15;2.03;;;;;;;;;;6193651;23;20176;-87
2022/09/08 17:00:45;;;;;;;4.43;1.73;;;;;;;;;;6196869;23;20175;-86
2022/09/08 17:03:52;;;;;;;8.48;2.25;;;;;;;;;;6194908;23;20172;-89
2022/09/08 17:07:02;;;;;;;4.88;2.47;;;;;;;;;;6193462;23;20194;-88
2022/09/08 17:10:15;;;;;;;5.80;2.28;;;;;;;;;;6195346;23;20175;-88
2022/09/08 17:13:22;;;;;;;3.63;1.90;;;;;;;;;;6200207;23;20321;-89
2022/09/08 17:16:42;;;;;;;7.00;2.28;;;;;;;;;;6206975;23;20168;-89
2022/09/08 17:19:54;;;;;;;4.88;1.75;;;;;;;;;;6206805;23;20222;-90
2022/09/08 17:23:14;;;;;;;4.28;1.58;;;;;;;;;;6207947;23;20175;-89
2022/09/08 17:26:22;;;;;;;3.47;1.85;;;;;;;;;;6208300;23;20228;-88
2022/09/08 17:29:38;;;;;;;5.65;2.10;;;;;;;;;;6208532;23;20171;-90
2022/09/08 17:32:56;;;;;;;5.32;3.00;;;;;;;;;;6207903;23;20171;-90
2022/09/08 17:36:19;;;;;;;14.02;4.93;;;;;;;;;;6208055;23;20175;-90
2022/09/08 17:39:32;;;;;;;4.88;2.65;;;;;;;;;;6208467;23;20190;-88
2022/09/08 17:42:43;;;;;;;4.65;1.98;;;;;;;;;;6210104;23;20164;-89
2022/09/08 17:45:56;;;;;;;3.10;2.05;;;;;;;;;;6210289;23;20162;-88
2022/09/08 17:49:07;;;;;;;6.65;2.25;;;;;;;;;;6209482;23;20175;-89
2022/09/08 17:52:18;;;;;;;3.03;1.77;;;;;;;;;;6209036;23;20222;-89
2022/09/08 17:55:31;;;;;;;4.22;1.95;;;;;;;;;;6209837;23;20171;-91
2022/09/08 17:58:38;;;;;;;5.55;1.90;;;;;;;;;;6210571;23;20325;-90
2022/09/08 18:01:54;;;;;;;4.07;1.85;;;;;;;;;;6208194;23;20167;-90
2022/09/08 18:05:11;;;;;;;5.13;1.98;;;;;;;;;;6210855;23;20175;-87
2022/09/08 18:08:21;;;;;;;6.45;1.63;;;;;;;;;;6208632;23;20167;-88
2022/09/08 18:11:35;;;;;;;4.00;1.90;;;;;;;;;;6228631;23;20166;-89
2022/09/08 18:14:45;;;;;;;5.43;1.70;;;;;;;;;;6196326;23;20195;-88
2022/09/08 18:17:53;;;;;;;2.75;1.90;;;;;;;;;;6195190;23;20168;-87
2022/09/08 18:21:01;;;;;;;6.82;2.20;;;;;;;;;;6195795;23;20654;-89
2022/09/08 18:24:14;;;;;;;4.10;1.55;;;;;;;;;;6193889;23;20303;-91
2022/09/08 18:27:23;;;;;;;3.35;1.60;;;;;;;;;;6194811;23;20176;-90
2022/09/08 18:30:36;;;;;;;3.05;1.70;;;;;;;;;;6194665;23;20250;-88
2022/09/08 18:34:02;;;;;;;7.32;2.22;;;;;;;;;;6195364;23;20175;-88
2022/09/08 18:37:12;;;;;;;7.00;2.83;;;;;;;;;;6178397;23;20171;-89
2022/09/08 18:40:23;;;;;;;4.60;3.08;;;;;;;;;;6195770;23;20168;-90
2022/09/08 18:43:36;;;;;;;5.63;3.25;;;;;;;;;;6197581;23;20218;-89
2022/09/08 18:46:51;;;;;;;5.65;2.60;;;;;;;;;;6197010;23;20283;-89
2022/09/08 18:50:16;;;;;;;9.05;2.80;;;;;;;;;;6197259;23;20168;-89
2022/09/08 18:53:32;;;;;;;7.30;2.35;;;;;;;;;;6195385;23;20172;-89
2022/09/08 18:56:44;;;;;;;7.30;2.67;;;;;;;;;;6194517;23;20237;-89
2022/09/08 19:00:03;;;;;;;5.18;2.58;;;;;;;;;;6195600;23;20196;-88
2022/09/08 19:03:12;;;;;;;10.57;2.10;;;;;;;;;;6195546;23;20168;-89
2022/09/08 19:06:25;;;;;;;8.43;2.13;;;;;;;;;;6196123;23;20206;-89
2022/09/08 19:13:03;;;;;;;4.28;2.17;;;;;;;;;;6196290;23;20168;-89
2022/09/08 19:16:12;;;;;;;7.75;3.05;;;;;;;;;;6206378;23;20216;-89